Tanner Field, CO

2:58 AM MST en Diciembre 08, 2016 (GMT -0700)
East Lewis | | Change Station

Alt 6909 ft 37.52 °N, 108.63 °W | Updated 4 minutes ago

Parcialmente nublado
Parcialmente nublado
59.5 ° F
Sensación térmica 59.5 ° F
N
0.0
Viento Variable Viento desde Este
Gusts 0.0 mph

Hoy
Alta -- | Baja -- ° F
--% Posibilidad de precipitaciones
Ayer
Alta -- | Baja -- ° F
Precip. -- pul
Presión 30.36 pul
Visibilidad 10.0 Millas
Nubes Despejado
Punto de rocío 37 ° F
Humedad 43%
Precipitaciones 0.00 pul
Espesor de la nieve No disponible.
7:17 AM 4:56 PM
Cuarto creciente, 62% visible
METAR KCEZ 080953Z AUTO 09004KT 10SM CLR M13/M16 A3027 RMK AO2 SLP281 T11281161
Presión 30.36 pul
Visibilidad 10.0 Millas
Nubes Despejado
Punto de rocío 37 ° F
Humedad 43%
Precipitaciones 0.00 pul
Espesor de la nieve No disponible.
7:17 AM 4:56 PM
Cuarto creciente, 62% visible
METAR KCEZ 080953Z AUTO 09004KT 10SM CLR M13/M16 A3027 RMK AO2 SLP281 T11281161

10-Day Weather Forecast

Almanac

Astronomía

Dec. 08, 2016 Salida Puesta
Hora real
Crepúsculo civil
Crepúsculo náutico
Crepúsculo astronómico
Luna
Horas de luz
Horas de luz
Tomorrow will be .
, % of the Moon is Illuminated

Extremos de hoy

Máximos del estado Bajos del estado

Community

WunderPhotos

Upload Photos

1,956,261 ¡fotos cargadas!

WunderBlog® & News

Nearby

Calidad del aire

  Calidad del aire Índice AQ Contaminante
Not available.

Grosos de nieve

Estación Profundido Altura

Actividad de terremotos

Ciudad Distance Mag. Tiempo y dato
Magnitud mínima muestra es 2,5.

Temperaturas de aguas costeras

Lugar Temperatura

Stations

Estaciones meteorológicas cercanas

Ubicación de la estación Temp. Vientos helados Punto de rocío Humedad Viento Precip. Alt Actualizado Tipo
                   

Watches & Warnings

There are currently no watches in effect.